Time;durP1;ratioP1;P1;durP2;ratioP2;P2;SDS_P1;SDS_P2;PMS_P1;PMS_P2;Temp;Humidity;BMP_temperature;BMP_pressure;BME280_temperature;BME280_humidity;BME280_pressure;Samples;Min_cycle;Max_cycle;Signal;HPM_P1;HPM_P2
2022/10/08 00:02:23;;;;;;;7.57;4.15;;;18.00;69.80;;;;;;10363460;28;20118;-60
2022/10/08 00:07:24;;;;;;;6.82;4.30;;;18.00;69.80;;;;;;10362656;28;20022;-60
2022/10/08 00:12:25;;;;;;;6.97;4.53;;;18.00;69.70;;;;;;10362519;28;20010;-60
2022/10/08 00:17:26;;;;;;;5.90;4.30;;;18.00;69.80;;;;;;10381719;28;20064;-60
2022/10/08 00:22:26;;;;;;;6.45;4.10;;;18.00;69.80;;;;;;10373369;28;20532;-60
2022/10/08 00:27:28;;;;;;;7.05;4.43;;;17.90;69.70;;;;;;10364015;28;20106;-60
2022/10/08 00:32:28;;;;;;;7.15;3.95;;;18.00;69.80;;;;;;10363765;28;20022;-60
2022/10/08 00:37:29;;;;;;;5.28;3.15;;;18.00;69.80;;;;;;10369439;28;20373;-60
2022/10/08 00:42:30;;;;;;;6.18;4.00;;;17.90;69.70;;;;;;10369488;28;20145;-59
2022/10/08 00:47:42;;;;;;;5.30;3.45;;;18.00;69.80;;;;;;10379068;28;20084;-60
2022/10/08 00:52:49;;;;;;;7.50;3.28;;;17.90;69.90;;;;;;10362179;28;20105;-60
2022/10/08 00:57:51;;;;;;;5.47;3.55;;;17.90;69.70;;;;;;10365371;28;20010;-60
2022/10/08 01:02:53;;;;;;;6.72;4.05;;;17.90;69.90;;;;;;10361808;28;20030;-60
2022/10/08 01:08:23;;;;;;;7.85;4.20;;;17.90;69.80;;;;;;10345705;28;20452;-60
2022/10/08 01:13:39;;;;;;;6.05;3.72;;;17.90;69.70;;;;;;10362832;28;20785;-60
2022/10/08 01:19:10;;;;;;;6.22;3.75;;;17.90;69.70;;;;;;10370166;28;20014;-59
2022/10/08 01:30:19;;;;;;;6.20;3.55;;;17.90;69.70;;;;;;10348993;28;20029;-60
2022/10/08 01:35:27;;;;;;;5.55;3.78;;;17.90;69.80;;;;;;10368601;28;20637;-60
2022/10/08 01:40:34;;;;;;;5.00;3.22;;;17.90;69.80;;;;;;10368167;28;20046;-60
2022/10/08 01:45:44;;;;;;;5.05;2.97;;;17.90;69.80;;;;;;10369393;28;20784;-60
2022/10/08 01:50:54;;;;;;;6.10;4.07;;;17.90;69.90;;;;;;10367823;28;20604;-59
2022/10/08 01:55:56;;;;;;;5.28;3.08;;;17.90;69.90;;;;;;10368637;28;20034;-60
2022/10/08 02:01:10;;;;;;;5.53;3.10;;;17.90;69.90;;;;;;10385184;28;20029;-59
2022/10/08 02:06:11;;;;;;;5.90;2.70;;;17.90;69.90;;;;;;10367195;28;20030;-60
2022/10/08 02:11:12;;;;;;;6.25;3.63;;;17.90;69.90;;;;;;10368303;28;20034;-60
2022/10/08 02:16:22;;;;;;;5.10;2.97;;;17.90;69.90;;;;;;10366420;28;20544;-60
2022/10/08 02:21:27;;;;;;;6.50;2.83;;;17.90;69.90;;;;;;10366665;28;20026;-59
2022/10/08 02:26:35;;;;;;;5.93;3.05;;;17.90;69.90;;;;;;10365872;28;20121;-59
2022/10/08 02:31:49;;;;;;;6.05;3.20;;;17.90;69.90;;;;;;10366358;28;20465;-59
2022/10/08 02:37:20;;;;;;;4.10;2.95;;;17.90;69.90;;;;;;10382113;28;20044;-60
2022/10/08 02:42:24;;;;;;;4.38;2.72;;;17.90;69.90;;;;;;10365826;28;20390;-59
2022/10/08 02:47:29;;;;;;;5.25;3.47;;;17.80;69.90;;;;;;10365600;28;20026;-60
2022/10/08 02:52:38;;;;;;;4.47;3.10;;;17.80;69.90;;;;;;10365324;28;20016;-60
2022/10/08 02:57:45;;;;;;;3.60;3.10;;;17.90;70.00;;;;;;10379101;28;20072;-59
2022/10/08 03:03:02;;;;;;;4.40;2.80;;;17.80;70.10;;;;;;10381257;28;20085;-59
2022/10/08 03:08:06;;;;;;;4.72;3.40;;;17.80;70.20;;;;;;10365324;28;20680;-59
2022/10/08 03:13:07;;;;;;;5.95;3.53;;;17.80;70.70;;;;;;10364742;28;20030;-59
2022/10/08 03:18:10;;;;;;;4.45;3.20;;;17.80;69.90;;;;;;10364476;28;20076;-60
2022/10/08 03:23:15;;;;;;;3.13;2.03;;;17.80;69.90;;;;;;10348153;28;20052;-59
2022/10/08 03:28:16;;;;;;;4.60;2.58;;;17.80;69.90;;;;;;10364215;28;20089;-59
2022/10/08 03:33:17;;;;;;;4.72;2.47;;;17.80;69.90;;;;;;10380249;28;20414;-60
2022/10/08 03:38:17;;;;;;;3.78;2.38;;;17.80;69.90;;;;;;10376970;28;20071;-60
2022/10/08 03:43:18;;;;;;;3.78;2.40;;;17.80;69.90;;;;;;10347041;28;20044;-59
2022/10/08 03:48:21;;;;;;;3.92;2.33;;;17.80;69.90;;;;;;10363320;28;20121;-59
2022/10/08 03:53:22;;;;;;;3.25;2.20;;;17.80;69.90;;;;;;10363166;28;20462;-59
2022/10/08 03:58:23;;;;;;;4.43;2.53;;;17.80;69.90;;;;;;10365779;28;20018;-59
2022/10/08 04:03:26;;;;;;;4.45;2.78;;;17.80;69.90;;;;;;10363249;28;20390;-59
2022/10/08 04:08:27;;;;;;;3.58;2.47;;;17.80;69.90;;;;;;10362995;28;20030;-61
2022/10/08 04:13:27;;;;;;;5.00;2.67;;;17.80;70.50;;;;;;10376040;28;20034;-60
2022/10/08 04:18:28;;;;;;;5.10;2.08;;;17.80;69.90;;;;;;10362818;28;20498;-59
2022/10/08 04:23:32;;;;;;;4.35;2.97;;;17.80;69.90;;;;;;10362829;28;20072;-59
2022/10/08 04:28:35;;;;;;;3.70;2.28;;;17.80;69.90;;;;;;10363062;28;20026;-60
2022/10/08 04:33:36;;;;;;;4.95;3.08;;;17.80;69.90;;;;;;10361444;28;20037;-59
2022/10/08 04:38:37;;;;;;;4.85;2.60;;;17.80;69.90;;;;;;10359932;28;20026;-59
2022/10/08 04:43:39;;;;;;;4.80;2.42;;;17.80;69.90;;;;;;10366241;28;20041;-59
2022/10/08 04:48:49;;;;;;;3.33;1.98;;;17.80;70.00;;;;;;10371252;28;20087;-60
2022/10/08 04:53:52;;;;;;;7.88;3.38;;;17.70;70.00;;;;;;10352178;28;20030;-60
2022/10/08 04:58:54;;;;;;;8.25;3.08;;;17.80;70.70;;;;;;10375114;28;20638;-57
2022/10/08 05:03:57;;;;;;;9.75;2.30;;;17.90;71.00;;;;;;10369064;28;20452;-58
2022/10/08 05:09:01;;;;;;;9.93;3.03;;;17.90;71.80;;;;;;10379141;28;20022;-59
2022/10/08 05:14:02;;;;;;;12.27;2.95;;;17.90;71.60;;;;;;10367114;28;20037;-59
2022/10/08 05:19:04;;;;;;;11.73;3.22;;;17.90;72.10;;;;;;10367137;28;20040;-57
2022/10/08 05:24:07;;;;;;;9.57;3.35;;;18.00;72.40;;;;;;10380545;28;20017;-57
2022/10/08 05:29:09;;;;;;;11.52;2.80;;;18.00;72.60;;;;;;10368267;28;20092;-61
2022/10/08 05:34:13;;;;;;;13.50;3.10;;;18.10;72.20;;;;;;10367742;28;20116;-56
2022/10/08 05:39:13;;;;;;;12.07;2.88;;;18.10;72.40;;;;;;10369322;28;20025;-58
2022/10/08 05:44:14;;;;;;;10.50;2.47;;;18.10;72.30;;;;;;10378502;28;20532;-58
2022/10/08 05:49:21;;;;;;;17.23;3.00;;;18.10;71.80;;;;;;10363027;28;20018;-58
2022/10/08 05:54:21;;;;;;;13.05;3.20;;;18.00;72.20;;;;;;10363053;28;20038;-59
2022/10/08 05:59:23;;;;;;;14.60;3.53;;;18.00;72.30;;;;;;10362238;28;20588;-58
2022/10/08 06:04:24;;;;;;;16.25;3.55;;;18.00;72.60;;;;;;10359979;28;20040;-59
2022/10/08 06:09:24;;;;;;;17.17;4.10;;;18.00;72.50;;;;;;10345894;28;20025;-58
2022/10/08 06:14:25;;;;;;;18.10;3.97;;;18.00;72.60;;;;;;10365888;28;20156;-58
2022/10/08 06:19:26;;;;;;;11.20;3.33;;;17.90;72.50;;;;;;10365856;28;20381;-58
2022/10/08 06:24:27;;;;;;;16.80;4.00;;;17.90;72.60;;;;;;10365626;28;20030;-58
2022/10/08 06:29:27;;;;;;;21.55;4.00;;;18.00;72.70;;;;;;10337800;28;20109;-57
2022/10/08 06:34:28;;;;;;;15.45;3.72;;;18.00;72.60;;;;;;10366052;28;20478;-59
2022/10/08 06:39:29;;;;;;;12.05;3.25;;;17.90;72.60;;;;;;10365155;28;20052;-58
2022/10/08 06:44:29;;;;;;;20.33;4.45;;;17.90;72.50;;;;;;10364971;28;20120;-58
2022/10/08 06:49:30;;;;;;;10.30;3.22;;;17.90;72.70;;;;;;10363010;28;20122;-57
2022/10/08 06:54:31;;;;;;;11.65;3.75;;;17.90;72.90;;;;;;10365213;28;20547;-57
2022/10/08 06:59:32;;;;;;;9.25;3.20;;;17.90;72.40;;;;;;10366225;28;21184;-58
2022/10/08 07:04:32;;;;;;;12.00;3.63;;;17.90;72.30;;;;;;10359378;28;20129;-58
2022/10/08 07:09:33;;;;;;;9.00;3.10;;;17.80;72.70;;;;;;10364186;28;20067;-57
2022/10/08 07:14:34;;;;;;;7.57;2.50;;;17.80;72.10;;;;;;10364000;28;20161;-57
2022/10/08 07:19:34;;;;;;;8.27;2.42;;;17.80;72.20;;;;;;10366139;28;20543;-57
2022/10/08 07:24:35;;;;;;;5.47;2.83;;;17.80;72.10;;;;;;10365778;28;20033;-57
2022/10/08 07:29:36;;;;;;;11.45;3.67;;;17.80;72.10;;;;;;10347869;28;20052;-58
2022/10/08 07:34:36;;;;;;;9.88;2.55;;;17.80;72.00;;;;;;10364968;28;20108;-56
2022/10/08 07:39:37;;;;;;;7.30;2.85;;;17.80;71.80;;;;;;10363200;28;20454;-57
2022/10/08 07:44:38;;;;;;;6.63;3.30;;;17.80;71.80;;;;;;10363410;28;20022;-58
2022/10/08 07:49:38;;;;;;;9.10;3.00;;;17.80;71.80;;;;;;10379199;28;20065;-57
2022/10/08 07:54:39;;;;;;;7.63;2.95;;;17.80;71.80;;;;;;10363378;28;20081;-58
2022/10/08 07:59:40;;;;;;;7.68;2.25;;;17.80;71.80;;;;;;10395249;28;20512;-57
2022/10/08 08:04:40;;;;;;;9.10;2.63;;;17.80;71.60;;;;;;10362685;28;20114;-57
2022/10/08 08:09:41;;;;;;;5.93;1.92;;;17.80;71.60;;;;;;10361483;28;20148;-57
2022/10/08 08:14:41;;;;;;;5.53;2.55;;;17.80;71.50;;;;;;10363163;28;20646;-58
2022/10/08 08:19:42;;;;;;;3.75;1.63;;;17.80;71.40;;;;;;10363033;28;20125;-58
2022/10/08 08:24:43;;;;;;;8.93;2.15;;;17.90;71.40;;;;;;10365388;28;20053;-58
2022/10/08 08:29:44;;;;;;;6.30;2.08;;;17.90;71.40;;;;;;10371193;28;20707;-60
2022/10/08 08:34:45;;;;;;;7.53;3.28;;;18.00;71.50;;;;;;10371247;28;20034;-58
2022/10/08 08:39:46;;;;;;;5.95;2.30;;;18.00;71.50;;;;;;10370708;28;20018;-58
2022/10/08 08:45:26;;;;;;;22.77;4.68;;;18.00;71.40;;;;;;10369464;28;20076;-59
2022/10/08 08:50:37;;;;;;;18.90;3.70;;;18.00;71.50;;;;;;10395020;28;20061;-59
2022/10/08 08:55:47;;;;;;;16.63;3.92;;;18.00;71.50;;;;;;10371497;28;20178;-59
2022/10/08 09:01:08;;;;;;;39.72;6.80;;;18.10;71.60;;;;;;10368051;28;20022;-58
2022/10/08 09:06:16;;;;;;;27.50;6.18;;;18.10;71.70;;;;;;10371491;28;20029;-58
2022/10/08 09:11:20;;;;;;;39.70;7.05;;;18.10;71.60;;;;;;10373469;28;20619;-57
2022/10/08 09:16:21;;;;;;;36.80;9.55;;;18.20;71.60;;;;;;10361207;28;20041;-58
2022/10/08 09:21:24;;;;;;;43.05;9.40;;;18.20;71.80;;;;;;10369129;28;20025;-58
2022/10/08 09:26:30;;;;;;;41.53;10.65;;;18.30;71.80;;;;;;10368220;28;20096;-58
2022/10/08 09:31:47;;;;;;;53.22;11.77;;;18.30;71.70;;;;;;10369670;28;20088;-58
2022/10/08 09:37:04;;;;;;;58.25;14.15;;;18.30;71.60;;;;;;10376533;28;20704;-60
2022/10/08 09:42:16;;;;;;;66.85;13.82;;;18.30;71.40;;;;;;10369028;28;20065;-58
2022/10/08 09:47:20;;;;;;;53.30;12.13;;;18.30;71.40;;;;;;10368096;28;20041;-57
2022/10/08 09:52:25;;;;;;;57.30;14.18;;;18.30;71.70;;;;;;10368940;28;20062;-59
2022/10/08 09:57:27;;;;;;;46.58;12.05;;;18.30;71.30;;;;;;10370115;28;20029;-56
2022/10/08 10:02:33;;;;;;;48.05;10.98;;;18.30;71.50;;;;;;10369187;28;20370;-56
2022/10/08 10:07:41;;;;;;;52.58;10.45;;;18.30;71.60;;;;;;10348956;28;20038;-58
2022/10/08 10:12:59;;;;;;;47.15;11.48;;;18.30;72.00;;;;;;10383626;28;20109;-59
2022/10/08 10:18:07;;;;;;;40.33;10.60;;;18.40;72.50;;;;;;10367043;28;20007;-58
2022/10/08 10:23:17;;;;;;;40.75;9.20;;;18.40;71.30;;;;;;10376181;28;20431;-58
2022/10/08 10:28:45;;;;;;;;;;;18.40;72.90;;;;;;10368780;28;20084;-58
2022/10/08 10:34:12;;;;;;;40.63;9.45;;;18.30;72.40;;;;;;10362371;28;19958;-56
2022/10/08 10:40:12;;;;;;;39.72;8.68;;;18.40;73.20;;;;;;10365365;28;20064;-57
2022/10/08 10:45:13;;;;;;;38.53;10.05;;;18.40;73.00;;;;;;10346309;28;20480;-57
2022/10/08 10:50:15;;;;;;;37.45;9.10;;;18.40;73.10;;;;;;10363383;28;20026;-58
2022/10/08 10:55:17;;;;;;;38.53;9.68;;;18.30;72.40;;;;;;10364524;28;20134;-57
2022/10/08 11:00:55;;;;;;;34.05;8.95;;;18.30;72.90;;;;;;10367286;28;20016;-58
2022/10/08 11:06:45;;;;;;;26.75;9.23;;;18.30;73.10;;;;;;10365249;28;20026;-59
2022/10/08 11:12:01;;;;;;;30.47;7.40;;;18.30;73.00;;;;;;10366219;28;20116;-59
2022/10/08 11:17:40;;;;;;;18.70;6.38;;;18.40;72.70;;;;;;10365609;28;20040;-59
2022/10/08 11:23:01;;;;;;;31.50;7.60;;;18.40;72.30;;;;;;10365515;28;20095;-58
2022/10/08 11:28:27;;;;;;;24.50;6.65;;;18.40;72.10;;;;;;10365533;28;20026;-58
2022/10/08 11:33:28;;;;;;;49.00;9.32;;;18.40;72.00;;;;;;10365246;28;20034;-58
2022/10/08 11:38:39;;;;;;;39.30;9.93;;;18.40;72.10;;;;;;10363527;28;20018;-59
2022/10/08 11:43:52;;;;;;;43.92;8.65;;;18.40;72.20;;;;;;10364962;28;20053;-61
2022/10/08 11:49:08;;;;;;;48.45;9.40;;;18.50;72.20;;;;;;10346261;28;20177;-61
2022/10/08 11:54:33;;;;;;;42.65;8.75;;;18.50;72.10;;;;;;10370195;28;20246;-61
2022/10/08 11:59:41;;;;;;;49.05;8.85;;;18.60;72.20;;;;;;10373233;28;20025;-62
2022/10/08 12:04:42;;;;;;;49.22;9.75;;;18.50;72.20;;;;;;10374140;28;20018;-62
2022/10/08 12:10:05;;;;;;;47.30;10.25;;;18.60;72.20;;;;;;10345446;28;20389;-58
2022/10/08 12:15:26;;;;;;;50.42;9.95;;;18.60;72.10;;;;;;10361430;28;20084;-61
2022/10/08 12:20:32;;;;;;;31.67;7.68;;;18.60;71.80;;;;;;10363618;28;20017;-61
2022/10/08 12:26:07;;;;;;;33.38;7.45;;;18.60;71.90;;;;;;10362607;28;20732;-61
2022/10/08 12:31:24;;;;;;;31.08;8.13;;;18.60;71.80;;;;;;10362543;28;20018;-61
2022/10/08 12:36:35;;;;;;;27.70;6.95;;;18.50;71.60;;;;;;10362269;28;20042;-61
2022/10/08 12:41:49;;;;;;;30.67;7.05;;;18.60;71.60;;;;;;10358324;28;21092;-60
2022/10/08 12:47:29;;;;;;;23.33;5.78;;;18.50;71.40;;;;;;10358973;28;20022;-60
2022/10/08 12:52:36;;;;;;;23.00;4.85;;;18.50;71.30;;;;;;10357324;28;20449;-63
2022/10/08 12:57:40;;;;;;;16.77;4.75;;;18.50;71.20;;;;;;10345872;28;20030;-61
2022/10/08 13:02:41;;;;;;;21.60;5.53;;;18.50;71.10;;;;;;10360626;28;20033;-61
2022/10/08 13:07:42;;;;;;;13.65;5.82;;;18.50;71.10;;;;;;10358424;28;20026;-61
2022/10/08 13:12:56;;;;;;;17.42;4.40;;;18.50;71.20;;;;;;10362246;28;20033;-60
2022/10/08 13:17:57;;;;;;;17.58;5.20;;;18.50;70.90;;;;;;10365175;28;20014;-61
2022/10/08 13:22:58;;;;;;;12.18;4.65;;;18.50;70.80;;;;;;10366318;28;20053;-60
2022/10/08 13:28:14;;;;;;;13.25;4.15;;;18.50;70.90;;;;;;10367978;28;20117;-60
2022/10/08 13:33:22;;;;;;;13.43;4.50;;;18.50;70.90;;;;;;10366693;28;20037;-61
2022/10/08 13:38:34;;;;;;;14.52;4.15;;;18.40;70.80;;;;;;10366162;28;20018;-60
2022/10/08 13:43:35;;;;;;;13.40;4.43;;;18.40;70.80;;;;;;10365794;28;20141;-61
2022/10/08 13:48:42;;;;;;;12.20;3.60;;;18.40;70.80;;;;;;10365868;28;20420;-61
2022/10/08 13:53:44;;;;;;;10.18;3.28;;;18.40;70.80;;;;;;10381620;28;20030;-61
2022/10/08 13:58:45;;;;;;;12.68;3.30;;;18.40;70.70;;;;;;10379873;28;20048;-60
2022/10/08 14:03:45;;;;;;;11.77;4.18;;;18.30;70.60;;;;;;10366558;28;20100;-61
2022/10/08 14:08:46;;;;;;;16.30;4.47;;;18.40;70.60;;;;;;10364182;28;20058;-60
2022/10/08 14:13:47;;;;;;;12.10;3.15;;;18.30;70.40;;;;;;10366286;28;20065;-60
2022/10/08 14:18:47;;;;;;;11.90;3.03;;;18.30;70.40;;;;;;10365423;28;20097;-61
2022/10/08 14:23:48;;;;;;;11.93;3.22;;;18.40;70.40;;;;;;10380527;28;20058;-59
2022/10/08 14:28:49;;;;;;;15.52;4.18;;;18.40;70.30;;;;;;10365917;28;20105;-60
2022/10/08 14:33:50;;;;;;;28.63;5.07;;;18.40;70.40;;;;;;10365398;28;20061;-59
2022/10/08 14:38:50;;;;;;;23.20;4.63;;;18.40;70.40;;;;;;10365594;28;20101;-60
2022/10/08 14:43:51;;;;;;;21.40;4.22;;;18.40;70.60;;;;;;10364246;28;20486;-60
2022/10/08 14:48:52;;;;;;;31.38;5.82;;;18.40;70.40;;;;;;10348278;28;20493;-59
2022/10/08 14:53:53;;;;;;;21.20;3.97;;;18.40;70.60;;;;;;10363305;28;20038;-60
2022/10/08 14:58:53;;;;;;;18.83;3.72;;;18.40;70.20;;;;;;10366635;28;20242;-59
2022/10/08 15:03:54;;;;;;;20.45;4.22;;;18.30;70.00;;;;;;10362564;28;20060;-60
2022/10/08 15:08:55;;;;;;;16.80;4.45;;;18.30;69.70;;;;;;10362913;28;20022;-60
2022/10/08 15:13:57;;;;;;;13.15;4.20;;;18.30;69.50;;;;;;10362517;28;20396;-60
2022/10/08 15:18:58;;;;;;;12.73;4.00;;;18.30;69.40;;;;;;10362223;28;20034;-59
2022/10/08 15:23:58;;;;;;;13.55;2.65;;;18.30;69.30;;;;;;10363119;28;20152;-60
2022/10/08 15:29:00;;;;;;;9.35;4.50;;;18.20;69.20;;;;;;10364223;28;20056;-59
2022/10/08 15:34:01;;;;;;;11.13;3.30;;;18.20;69.30;;;;;;10362774;28;20038;-60
2022/10/08 15:39:13;;;;;;;10.13;2.80;;;18.20;69.20;;;;;;10365982;28;20057;-61
2022/10/08 15:44:20;;;;;;;10.88;3.65;;;18.20;69.30;;;;;;10342817;28;20064;-60
2022/10/08 15:49:20;;;;;;;13.20;3.15;;;18.30;69.40;;;;;;10361034;28;20022;-60
2022/10/08 15:54:21;;;;;;;13.30;3.92;;;18.20;69.10;;;;;;10361160;28;20085;-60
2022/10/08 15:59:22;;;;;;;36.65;10.82;;;18.30;69.40;;;;;;10362002;28;20018;-58
2022/10/08 16:04:22;;;;;;;29.52;6.80;;;18.30;70.10;;;;;;10362386;28;20068;-59
2022/10/08 16:09:23;;;;;;;73.85;10.68;;;18.30;69.20;;;;;;10359669;28;20056;-60
2022/10/08 16:14:25;;;;;;;50.45;10.23;;;18.30;68.90;;;;;;10359476;28;20049;-60
2022/10/08 16:19:26;;;;;;;37.95;14.13;;;18.30;68.50;;;;;;10383057;28;20477;-61
2022/10/08 16:24:27;;;;;;;32.03;8.52;;;18.30;73.30;;;;;;10368490;28;20026;-60
2022/10/08 16:29:28;;;;;;;32.22;7.82;;;18.50;74.10;;;;;;10362285;28;20030;-59
2022/10/08 16:34:30;;;;;;;21.23;5.75;;;18.60;72.80;;;;;;10389378;28;20037;-61
2022/10/08 16:39:31;;;;;;;27.17;7.60;;;18.70;72.50;;;;;;10359725;28;20025;-61
2022/10/08 16:44:31;;;;;;;36.22;6.38;;;18.70;72.10;;;;;;10361092;28;20060;-59
2022/10/08 16:49:32;;;;;;;26.35;6.35;;;18.70;72.00;;;;;;10369262;28;20089;-61
2022/10/08 16:54:33;;;;;;;28.48;7.20;;;18.70;71.50;;;;;;10367807;28;20113;-60
2022/10/08 16:59:34;;;;;;;22.92;6.35;;;18.60;71.70;;;;;;10367343;28;20022;-60
2022/10/08 17:04:38;;;;;;;18.65;5.57;;;18.40;71.70;;;;;;10368410;28;20121;-60
2022/10/08 17:09:39;;;;;;;18.38;5.50;;;18.40;71.90;;;;;;10368032;28;20025;-60
2022/10/08 17:14:39;;;;;;;29.02;5.90;;;18.40;72.10;;;;;;10369251;28;20501;-62
2022/10/08 17:19:40;;;;;;;30.17;7.28;;;18.40;71.90;;;;;;10370488;28;20049;-62
2022/10/08 17:24:41;;;;;;;20.83;7.25;;;18.50;71.90;;;;;;10368822;28;20072;-62
2022/10/08 17:29:41;;;;;;;17.83;6.40;;;18.40;72.10;;;;;;10368701;28;20026;-61
2022/10/08 17:34:42;;;;;;;25.75;5.63;;;18.40;71.50;;;;;;10367498;28;20030;-60
2022/10/08 17:39:43;;;;;;;20.45;5.38;;;18.30;71.80;;;;;;10365135;28;20050;-61
2022/10/08 17:44:44;;;;;;;26.48;6.18;;;18.30;71.70;;;;;;10364031;28;20556;-61
2022/10/08 17:49:45;;;;;;;18.27;5.05;;;18.30;71.80;;;;;;10364842;28;20387;-62
2022/10/08 17:54:46;;;;;;;19.70;4.35;;;18.30;71.60;;;;;;10364607;28;20077;-61
2022/10/08 17:59:46;;;;;;;22.63;4.50;;;18.30;71.70;;;;;;10364787;28;20289;-61
2022/10/08 18:04:47;;;;;;;16.27;4.88;;;18.30;71.60;;;;;;10378993;28;20105;-61
2022/10/08 18:09:48;;;;;;;10.90;4.07;;;18.30;71.60;;;;;;10379735;28;20049;-62
2022/10/08 18:14:49;;;;;;;12.63;3.70;;;18.30;70.80;;;;;;10363127;28;20022;-62
2022/10/08 18:19:50;;;;;;;24.55;5.70;;;18.20;70.90;;;;;;10362479;28;20010;-62
2022/10/08 18:24:50;;;;;;;14.77;4.40;;;18.20;71.00;;;;;;10373327;28;20022;-62
2022/10/08 18:29:51;;;;;;;15.98;4.90;;;18.20;71.00;;;;;;10377027;28;20026;-62
2022/10/08 18:34:52;;;;;;;17.42;4.47;;;18.30;71.20;;;;;;10361955;28;20096;-62
2022/10/08 18:39:52;;;;;;;11.18;4.47;;;18.30;71.10;;;;;;10361743;28;20066;-62
2022/10/08 18:44:53;;;;;;;12.70;4.75;;;18.30;71.10;;;;;;10378140;28;20018;-61
2022/10/08 18:49:54;;;;;;;11.15;3.78;;;18.30;71.00;;;;;;10361303;28;20029;-61
2022/10/08 18:54:54;;;;;;;9.20;4.43;;;18.30;70.90;;;;;;10359615;28;20673;-62
2022/10/08 18:59:55;;;;;;;9.85;3.60;;;18.20;70.80;;;;;;10364366;28;20053;-62
2022/10/08 19:04:56;;;;;;;13.43;2.95;;;18.30;70.80;;;;;;10360611;28;20378;-63
2022/10/08 19:09:57;;;;;;;9.25;2.90;;;18.20;70.80;;;;;;10361081;28;20018;-62
2022/10/08 19:14:58;;;;;;;10.82;3.47;;;18.20;70.70;;;;;;10359669;28;20064;-62
2022/10/08 19:19:58;;;;;;;9.65;3.15;;;18.20;70.80;;;;;;10359815;28;20050;-62
2022/10/08 19:24:59;;;;;;;12.50;2.97;;;18.20;70.80;;;;;;10363277;28;20526;-62
2022/10/08 19:30:00;;;;;;;12.45;3.70;;;18.20;70.80;;;;;;10362380;28;20021;-62
2022/10/08 19:35:00;;;;;;;7.13;2.53;;;18.20;70.50;;;;;;10361693;28;20112;-62
2022/10/08 19:40:03;;;;;;;9.15;2.88;;;18.10;70.40;;;;;;10361953;28;20030;-62
2022/10/08 19:45:04;;;;;;;7.55;2.72;;;18.10;70.20;;;;;;10344888;28;20033;-62
2022/10/08 19:50:05;;;;;;;8.55;2.55;;;18.10;70.20;;;;;;10391834;28;20109;-62
2022/10/08 19:55:07;;;;;;;9.07;3.10;;;18.10;70.10;;;;;;10360831;28;20057;-62
2022/10/08 20:00:08;;;;;;;10.75;2.78;;;18.10;70.00;;;;;;10364454;28;20044;-62
2022/10/08 20:05:09;;;;;;;6.72;2.45;;;18.10;70.00;;;;;;10351171;28;20079;-62
2022/10/08 20:10:14;;;;;;;9.82;2.20;;;18.10;70.00;;;;;;10362875;28;20115;-62
2022/10/08 20:15:14;;;;;;;4.50;1.85;;;18.10;69.90;;;;;;10377371;28;20037;-62
2022/10/08 20:20:15;;;;;;;5.32;2.28;;;18.00;69.80;;;;;;10362265;28;20014;-63
2022/10/08 20:25:18;;;;;;;5.85;2.70;;;18.00;69.60;;;;;;10362719;28;20033;-61
2022/10/08 20:30:18;;;;;;;2.63;1.50;;;18.00;69.60;;;;;;10362183;28;20026;-62
2022/10/08 20:35:19;;;;;;;7.00;2.13;;;18.00;69.50;;;;;;10362201;28;20030;-62
2022/10/08 20:40:20;;;;;;;5.72;2.40;;;18.00;69.40;;;;;;10362793;28;20069;-62
2022/10/08 20:45:20;;;;;;;4.97;1.92;;;18.00;69.90;;;;;;10363770;28;20045;-63
2022/10/08 20:50:21;;;;;;;5.53;1.60;;;18.00;69.30;;;;;;10363271;28;20053;-61
2022/10/08 20:55:21;;;;;;;5.22;2.00;;;18.00;69.30;;;;;;10362383;28;20080;-62
2022/10/08 21:00:22;;;;;;;4.55;1.58;;;18.00;69.20;;;;;;10364626;28;20041;-62
2022/10/08 21:05:23;;;;;;;4.85;1.85;;;18.00;69.30;;;;;;10363104;28;20057;-62
2022/10/08 21:10:23;;;;;;;4.95;1.80;;;18.00;69.80;;;;;;10361637;28;20615;-61
2022/10/08 21:15:24;;;;;;;5.28;2.80;;;18.00;69.10;;;;;;10361345;28;20779;-61
2022/10/08 21:20:25;;;;;;;5.03;1.83;;;17.90;69.10;;;;;;10361417;28;20133;-62
2022/10/08 21:25:25;;;;;;;5.15;2.30;;;17.90;69.00;;;;;;10363032;28;20053;-62
2022/10/08 21:30:26;;;;;;;3.47;1.58;;;17.90;69.00;;;;;;10377871;28;20049;-61
2022/10/08 21:35:27;;;;;;;6.30;1.67;;;17.90;69.00;;;;;;10398046;28;20032;-61
2022/10/08 21:40:27;;;;;;;3.40;1.52;;;17.90;68.90;;;;;;10372897;28;20452;-61
2022/10/08 21:45:28;;;;;;;3.55;1.80;;;17.90;68.80;;;;;;10376348;28;20097;-62
2022/10/08 21:50:29;;;;;;;3.78;1.85;;;17.90;68.80;;;;;;10367762;28;20041;-62
2022/10/08 21:55:29;;;;;;;4.35;1.90;;;17.90;68.80;;;;;;10369075;28;20072;-61
2022/10/08 22:00:32;;;;;;;3.92;1.63;;;17.90;68.80;;;;;;10369701;28;20042;-62
2022/10/08 22:05:33;;;;;;;3.20;1.58;;;17.90;68.80;;;;;;10367011;28;20033;-62
2022/10/08 22:10:36;;;;;;;3.05;1.60;;;17.90;68.80;;;;;;10368058;28;20049;-61
2022/10/08 22:15:37;;;;;;;4.00;2.30;;;17.90;68.80;;;;;;10367005;28;20030;-62
2022/10/08 22:20:37;;;;;;;3.13;1.63;;;17.90;68.70;;;;;;10368109;28;20021;-62
2022/10/08 22:25:38;;;;;;;5.20;1.85;;;17.90;69.30;;;;;;10366166;28;20073;-62
2022/10/08 22:30:39;;;;;;;3.78;1.98;;;17.90;68.70;;;;;;10366400;28;20042;-62
2022/10/08 22:35:39;;;;;;;3.38;1.52;;;17.80;68.60;;;;;;10367243;28;20482;-61
2022/10/08 22:40:40;;;;;;;3.00;1.80;;;17.80;68.60;;;;;;10365425;28;20133;-62
2022/10/08 22:45:41;;;;;;;6.65;2.03;;;17.80;68.60;;;;;;10366356;28;20046;-62
2022/10/08 22:50:41;;;;;;;5.63;1.88;;;17.80;68.50;;;;;;10366695;28;20022;-62
2022/10/08 22:55:42;;;;;;;3.35;1.85;;;17.80;68.50;;;;;;10366489;28;20165;-62
2022/10/08 23:00:42;;;;;;;3.97;2.40;;;17.80;68.50;;;;;;10367878;28;20097;-61
2022/10/08 23:05:43;;;;;;;4.30;2.13;;;17.80;69.00;;;;;;10364834;28;20046;-62
2022/10/08 23:10:53;;;;;;;5.22;2.30;;;17.80;68.90;;;;;;10348712;28;20046;-62
2022/10/08 23:16:05;;;;;;;4.28;1.90;;;17.80;68.30;;;;;;10364391;28;20030;-61
2022/10/08 23:21:11;;;;;;;4.32;1.90;;;17.70;68.20;;;;;;10364857;28;20026;-61
2022/10/08 23:26:13;;;;;;;4.32;2.17;;;17.70;68.30;;;;;;10364643;28;20022;-61
2022/10/08 23:31:16;;;;;;;3.65;2.28;;;17.70;68.30;;;;;;10365177;28;20030;-62
2022/10/08 23:36:24;;;;;;;3.35;2.38;;;17.70;68.20;;;;;;10363628;28;20084;-61
2022/10/08 23:41:26;;;;;;;3.15;1.52;;;17.70;68.20;;;;;;10363243;28;20050;-61
2022/10/08 23:46:29;;;;;;;3.60;1.83;;;17.70;68.20;;;;;;10363451;28;20021;-61
2022/10/08 23:51:32;;;;;;;3.42;1.77;;;17.70;68.30;;;;;;10362823;28;20075;-62
2022/10/08 23:56:33;;;;;;;3.38;1.67;;;17.70;68.10;;;;;;10366325;28;20539;-62
